sensor_id;sensor_type;location;lat;lon;timestamp;P1;durP1;ratioP1;P2;durP2;ratioP2
28007;SDS011;15333;50.010;20.020;2022-08-20T00:02:50;24.58;;;18.15;;
28007;SDS011;15333;50.010;20.020;2022-08-20T00:05:56;33.05;;;18.25;;
28007;SDS011;15333;50.010;20.020;2022-08-20T00:09:03;34.13;;;18.15;;
28007;SDS011;15333;50.010;20.020;2022-08-20T00:12:04;32.50;;;18.45;;
28007;SDS011;15333;50.010;20.020;2022-08-20T00:15:06;32.33;;;18.60;;
28007;SDS011;15333;50.010;20.020;2022-08-20T00:18:07;23.00;;;17.67;;
28007;SDS011;15333;50.010;20.020;2022-08-20T00:21:10;26.27;;;18.40;;
28007;SDS011;15333;50.010;20.020;2022-08-20T00:24:13;29.67;;;18.95;;
28007;SDS011;15333;50.010;20.020;2022-08-20T00:27:13;29.33;;;17.77;;
28007;SDS011;15333;50.010;20.020;2022-08-20T00:30:15;29.85;;;19.70;;
28007;SDS011;15333;50.010;20.020;2022-08-20T00:33:17;23.10;;;17.90;;
28007;SDS011;15333;50.010;20.020;2022-08-20T00:36:21;26.92;;;18.23;;
28007;SDS011;15333;50.010;20.020;2022-08-20T00:39:22;25.23;;;19.20;;
28007;SDS011;15333;50.010;20.020;2022-08-20T00:42:23;26.95;;;19.10;;
28007;SDS011;15333;50.010;20.020;2022-08-20T00:45:26;26.13;;;18.90;;
28007;SDS011;15333;50.010;20.020;2022-08-20T00:48:29;30.27;;;18.50;;
28007;SDS011;15333;50.010;20.020;2022-08-20T00:51:35;31.67;;;18.73;;
28007;SDS011;15333;50.010;20.020;2022-08-20T00:54:41;30.00;;;19.05;;
28007;SDS011;15333;50.010;20.020;2022-08-20T00:57:47;28.80;;;18.65;;
28007;SDS011;15333;50.010;20.020;2022-08-20T01:00:53;29.85;;;19.75;;
28007;SDS011;15333;50.010;20.020;2022-08-20T01:03:56;25.85;;;19.08;;
28007;SDS011;15333;50.010;20.020;2022-08-20T01:06:57;37.40;;;19.30;;
28007;SDS011;15333;50.010;20.020;2022-08-20T01:10:04;27.83;;;18.92;;
28007;SDS011;15333;50.010;20.020;2022-08-20T01:13:16;32.05;;;19.73;;
28007;SDS011;15333;50.010;20.020;2022-08-20T01:16:24;26.98;;;19.75;;
28007;SDS011;15333;50.010;20.020;2022-08-20T01:19:32;26.60;;;18.65;;
28007;SDS011;15333;50.010;20.020;2022-08-20T01:22:59;34.20;;;20.02;;
28007;SDS011;15333;50.010;20.020;2022-08-20T01:26:26;27.02;;;19.05;;
28007;SDS011;15333;50.010;20.020;2022-08-20T01:29:36;30.73;;;21.05;;
28007;SDS011;15333;50.010;20.020;2022-08-20T01:32:39;30.95;;;19.88;;
28007;SDS011;15333;50.010;20.020;2022-08-20T01:35:40;30.05;;;20.88;;
28007;SDS011;15333;50.010;20.020;2022-08-20T01:38:42;33.30;;;21.20;;
28007;SDS011;15333;50.010;20.020;2022-08-20T01:44:56;35.10;;;20.52;;
28007;SDS011;15333;50.010;20.020;2022-08-20T01:47:57;31.35;;;20.90;;
28007;SDS011;15333;50.010;20.020;2022-08-20T01:51:07;31.02;;;21.88;;
28007;SDS011;15333;50.010;20.020;2022-08-20T01:54:13;30.17;;;21.27;;
28007;SDS011;15333;50.010;20.020;2022-08-20T01:57:15;34.67;;;21.10;;
28007;SDS011;15333;50.010;20.020;2022-08-20T02:00:19;31.60;;;20.00;;
28007;SDS011;15333;50.010;20.020;2022-08-20T02:03:21;29.88;;;20.45;;
28007;SDS011;15333;50.010;20.020;2022-08-20T02:06:27;29.60;;;19.33;;
28007;SDS011;15333;50.010;20.020;2022-08-20T02:09:34;32.13;;;19.65;;
28007;SDS011;15333;50.010;20.020;2022-08-20T02:12:38;35.95;;;19.02;;
28007;SDS011;15333;50.010;20.020;2022-08-20T02:15:40;33.25;;;20.45;;
28007;SDS011;15333;50.010;20.020;2022-08-20T02:18:41;31.33;;;18.77;;
28007;SDS011;15333;50.010;20.020;2022-08-20T02:21:43;30.63;;;20.08;;
28007;SDS011;15333;50.010;20.020;2022-08-20T02:24:52;30.00;;;20.42;;
28007;SDS011;15333;50.010;20.020;2022-08-20T02:27:55;32.63;;;20.25;;
28007;SDS011;15333;50.010;20.020;2022-08-20T02:30:57;27.00;;;18.98;;
28007;SDS011;15333;50.010;20.020;2022-08-20T02:33:59;30.92;;;19.63;;
28007;SDS011;15333;50.010;20.020;2022-08-20T02:37:01;29.73;;;19.77;;
28007;SDS011;15333;50.010;20.020;2022-08-20T02:40:04;31.20;;;20.02;;
28007;SDS011;15333;50.010;20.020;2022-08-20T02:43:07;31.95;;;20.98;;
28007;SDS011;15333;50.010;20.020;2022-08-20T02:46:08;31.10;;;21.27;;
28007;SDS011;15333;50.010;20.020;2022-08-20T02:49:09;30.35;;;20.08;;
28007;SDS011;15333;50.010;20.020;2022-08-20T02:52:10;30.15;;;19.65;;
28007;SDS011;15333;50.010;20.020;2022-08-20T02:55:11;32.08;;;20.38;;
28007;SDS011;15333;50.010;20.020;2022-08-20T02:58:13;32.42;;;20.83;;
28007;SDS011;15333;50.010;20.020;2022-08-20T03:01:15;24.77;;;18.75;;
28007;SDS011;15333;50.010;20.020;2022-08-20T03:04:17;25.95;;;20.35;;
28007;SDS011;15333;50.010;20.020;2022-08-20T03:07:18;31.58;;;20.70;;
28007;SDS011;15333;50.010;20.020;2022-08-20T03:10:23;29.13;;;21.42;;
28007;SDS011;15333;50.010;20.020;2022-08-20T03:13:27;31.95;;;20.27;;
28007;SDS011;15333;50.010;20.020;2022-08-20T03:16:28;44.80;;;27.70;;
28007;SDS011;15333;50.010;20.020;2022-08-20T03:19:29;29.45;;;20.73;;
28007;SDS011;15333;50.010;20.020;2022-08-20T03:22:30;33.53;;;22.23;;
28007;SDS011;15333;50.010;20.020;2022-08-20T03:25:31;34.85;;;22.52;;
28007;SDS011;15333;50.010;20.020;2022-08-20T03:28:32;29.10;;;21.70;;
28007;SDS011;15333;50.010;20.020;2022-08-20T03:31:34;34.40;;;22.48;;
28007;SDS011;15333;50.010;20.020;2022-08-20T03:34:34;30.15;;;21.88;;
28007;SDS011;15333;50.010;20.020;2022-08-20T03:37:36;30.75;;;22.08;;
28007;SDS011;15333;50.010;20.020;2022-08-20T03:40:38;41.25;;;27.08;;
28007;SDS011;15333;50.010;20.020;2022-08-20T03:43:39;43.95;;;26.20;;
28007;SDS011;15333;50.010;20.020;2022-08-20T03:46:41;35.72;;;24.73;;
28007;SDS011;15333;50.010;20.020;2022-08-20T03:49:42;37.83;;;24.65;;
28007;SDS011;15333;50.010;20.020;2022-08-20T03:52:42;44.40;;;25.48;;
28007;SDS011;15333;50.010;20.020;2022-08-20T03:55:44;36.08;;;23.85;;
28007;SDS011;15333;50.010;20.020;2022-08-20T03:58:47;32.67;;;23.45;;
28007;SDS011;15333;50.010;20.020;2022-08-20T04:01:47;35.80;;;22.75;;
28007;SDS011;15333;50.010;20.020;2022-08-20T04:04:48;33.95;;;23.35;;
28007;SDS011;15333;50.010;20.020;2022-08-20T04:07:49;38.83;;;22.10;;
28007;SDS011;15333;50.010;20.020;2022-08-20T04:10:51;37.97;;;22.98;;
28007;SDS011;15333;50.010;20.020;2022-08-20T04:13:55;34.03;;;21.73;;
28007;SDS011;15333;50.010;20.020;2022-08-20T04:16:56;29.33;;;20.55;;
28007;SDS011;15333;50.010;20.020;2022-08-20T04:19:58;25.77;;;18.73;;
28007;SDS011;15333;50.010;20.020;2022-08-20T04:23:02;31.17;;;19.83;;
28007;SDS011;15333;50.010;20.020;2022-08-20T04:26:04;37.17;;;19.15;;
28007;SDS011;15333;50.010;20.020;2022-08-20T04:29:05;25.40;;;18.42;;
28007;SDS011;15333;50.010;20.020;2022-08-20T04:32:06;26.75;;;17.42;;
28007;SDS011;15333;50.010;20.020;2022-08-20T04:35:08;23.48;;;16.48;;
28007;SDS011;15333;50.010;20.020;2022-08-20T04:38:13;27.85;;;16.65;;
28007;SDS011;15333;50.010;20.020;2022-08-20T04:41:15;20.33;;;15.27;;
28007;SDS011;15333;50.010;20.020;2022-08-20T04:44:17;23.75;;;14.93;;
28007;SDS011;15333;50.010;20.020;2022-08-20T04:47:19;27.75;;;16.27;;
28007;SDS011;15333;50.010;20.020;2022-08-20T04:50:21;27.23;;;17.27;;
28007;SDS011;15333;50.010;20.020;2022-08-20T04:53:23;23.90;;;15.85;;
28007;SDS011;15333;50.010;20.020;2022-08-20T04:56:28;26.20;;;16.20;;
28007;SDS011;15333;50.010;20.020;2022-08-20T04:59:31;30.27;;;17.77;;
28007;SDS011;15333;50.010;20.020;2022-08-20T05:02:31;28.60;;;16.85;;
28007;SDS011;15333;50.010;20.020;2022-08-20T05:05:32;27.00;;;17.75;;
28007;SDS011;15333;50.010;20.020;2022-08-20T05:08:34;22.63;;;17.13;;
28007;SDS011;15333;50.010;20.020;2022-08-20T05:11:36;26.20;;;17.75;;
28007;SDS011;15333;50.010;20.020;2022-08-20T05:14:37;35.13;;;17.50;;
28007;SDS011;15333;50.010;20.020;2022-08-20T05:17:39;32.28;;;17.13;;
28007;SDS011;15333;50.010;20.020;2022-08-20T05:20:41;31.92;;;18.02;;
28007;SDS011;15333;50.010;20.020;2022-08-20T05:23:42;30.85;;;16.83;;
28007;SDS011;15333;50.010;20.020;2022-08-20T05:26:43;24.25;;;16.38;;
28007;SDS011;15333;50.010;20.020;2022-08-20T05:29:43;25.67;;;16.67;;
28007;SDS011;15333;50.010;20.020;2022-08-20T05:32:45;25.63;;;16.88;;
28007;SDS011;15333;50.010;20.020;2022-08-20T05:35:47;26.50;;;16.48;;
28007;SDS011;15333;50.010;20.020;2022-08-20T05:38:50;23.00;;;15.45;;
28007;SDS011;15333;50.010;20.020;2022-08-20T05:41:53;28.73;;;16.67;;
28007;SDS011;15333;50.010;20.020;2022-08-20T05:44:54;24.52;;;15.50;;
28007;SDS011;15333;50.010;20.020;2022-08-20T05:47:54;26.10;;;14.80;;
28007;SDS011;15333;50.010;20.020;2022-08-20T05:50:56;22.85;;;14.25;;
28007;SDS011;15333;50.010;20.020;2022-08-20T05:53:57;24.33;;;15.13;;
28007;SDS011;15333;50.010;20.020;2022-08-20T05:56:58;25.17;;;14.15;;
28007;SDS011;15333;50.010;20.020;2022-08-20T06:00:00;22.58;;;14.57;;
28007;SDS011;15333;50.010;20.020;2022-08-20T06:03:12;27.02;;;15.13;;
28007;SDS011;15333;50.010;20.020;2022-08-20T06:06:32;20.52;;;14.60;;
28007;SDS011;15333;50.010;20.020;2022-08-20T06:09:33;23.13;;;13.77;;
28007;SDS011;15333;50.010;20.020;2022-08-20T06:12:35;26.73;;;13.45;;
28007;SDS011;15333;50.010;20.020;2022-08-20T06:15:37;24.83;;;14.20;;
28007;SDS011;15333;50.010;20.020;2022-08-20T06:18:38;23.67;;;13.75;;
28007;SDS011;15333;50.010;20.020;2022-08-20T06:21:39;27.02;;;13.52;;
28007;SDS011;15333;50.010;20.020;2022-08-20T06:24:40;18.80;;;12.68;;
28007;SDS011;15333;50.010;20.020;2022-08-20T06:27:42;21.17;;;13.70;;
28007;SDS011;15333;50.010;20.020;2022-08-20T06:30:43;19.33;;;13.00;;
28007;SDS011;15333;50.010;20.020;2022-08-20T06:33:44;21.30;;;13.18;;
28007;SDS011;15333;50.010;20.020;2022-08-20T06:36:45;20.08;;;13.38;;
28007;SDS011;15333;50.010;20.020;2022-08-20T06:39:49;24.05;;;13.48;;
28007;SDS011;15333;50.010;20.020;2022-08-20T06:42:51;22.42;;;12.40;;
28007;SDS011;15333;50.010;20.020;2022-08-20T06:45:52;17.42;;;12.02;;
28007;SDS011;15333;50.010;20.020;2022-08-20T06:48:57;23.23;;;13.63;;
28007;SDS011;15333;50.010;20.020;2022-08-20T06:51:58;19.38;;;12.82;;
28007;SDS011;15333;50.010;20.020;2022-08-20T06:54:58;20.42;;;12.50;;
28007;SDS011;15333;50.010;20.020;2022-08-20T06:58:00;20.75;;;12.25;;
28007;SDS011;15333;50.010;20.020;2022-08-20T07:01:03;27.65;;;13.25;;
28007;SDS011;15333;50.010;20.020;2022-08-20T07:04:05;20.00;;;13.43;;
28007;SDS011;15333;50.010;20.020;2022-08-20T07:07:14;19.20;;;12.55;;
28007;SDS011;15333;50.010;20.020;2022-08-20T07:10:17;19.20;;;12.98;;
28007;SDS011;15333;50.010;20.020;2022-08-20T07:13:19;23.80;;;12.77;;
28007;SDS011;15333;50.010;20.020;2022-08-20T07:16:20;19.20;;;13.18;;
28007;SDS011;15333;50.010;20.020;2022-08-20T07:19:20;17.80;;;12.93;;
28007;SDS011;15333;50.010;20.020;2022-08-20T07:22:23;20.27;;;13.30;;
28007;SDS011;15333;50.010;20.020;2022-08-20T07:25:24;19.58;;;13.40;;
28007;SDS011;15333;50.010;20.020;2022-08-20T07:28:26;21.50;;;13.38;;
28007;SDS011;15333;50.010;20.020;2022-08-20T07:31:31;22.65;;;13.13;;
28007;SDS011;15333;50.010;20.020;2022-08-20T07:34:51;16.65;;;12.68;;
28007;SDS011;15333;50.010;20.020;2022-08-20T07:37:52;20.42;;;13.35;;
28007;SDS011;15333;50.010;20.020;2022-08-20T07:41:00;17.52;;;13.07;;
28007;SDS011;15333;50.010;20.020;2022-08-20T07:44:05;18.90;;;13.85;;
28007;SDS011;15333;50.010;20.020;2022-08-20T07:47:06;19.00;;;13.60;;
28007;SDS011;15333;50.010;20.020;2022-08-20T07:50:11;22.05;;;13.20;;
28007;SDS011;15333;50.010;20.020;2022-08-20T07:53:13;17.70;;;12.80;;
28007;SDS011;15333;50.010;20.020;2022-08-20T07:56:16;25.80;;;13.85;;
28007;SDS011;15333;50.010;20.020;2022-08-20T07:59:19;22.80;;;13.95;;
28007;SDS011;15333;50.010;20.020;2022-08-20T08:02:19;19.92;;;12.90;;
28007;SDS011;15333;50.010;20.020;2022-08-20T08:05:20;22.63;;;13.98;;
28007;SDS011;15333;50.010;20.020;2022-08-20T08:08:22;26.67;;;14.18;;
28007;SDS011;15333;50.010;20.020;2022-08-20T08:11:26;16.73;;;13.23;;
28007;SDS011;15333;50.010;20.020;2022-08-20T08:14:28;21.65;;;13.93;;
28007;SDS011;15333;50.010;20.020;2022-08-20T08:17:32;19.27;;;13.82;;
28007;SDS011;15333;50.010;20.020;2022-08-20T08:20:38;21.17;;;14.18;;
28007;SDS011;15333;50.010;20.020;2022-08-20T08:23:41;18.65;;;13.52;;
28007;SDS011;15333;50.010;20.020;2022-08-20T08:26:43;19.58;;;13.70;;
28007;SDS011;15333;50.010;20.020;2022-08-20T08:29:44;21.15;;;14.20;;
28007;SDS011;15333;50.010;20.020;2022-08-20T08:32:45;26.02;;;14.38;;
28007;SDS011;15333;50.010;20.020;2022-08-20T08:36:09;20.60;;;15.25;;
28007;SDS011;15333;50.010;20.020;2022-08-20T08:39:12;16.98;;;14.88;;
28007;SDS011;15333;50.010;20.020;2022-08-20T08:45:44;23.65;;;14.40;;
28007;SDS011;15333;50.010;20.020;2022-08-20T08:48:49;20.88;;;14.30;;
28007;SDS011;15333;50.010;20.020;2022-08-20T08:51:56;21.15;;;13.98;;
28007;SDS011;15333;50.010;20.020;2022-08-20T08:58:06;22.15;;;14.55;;
28007;SDS011;15333;50.010;20.020;2022-08-20T09:01:11;22.92;;;14.48;;
28007;SDS011;15333;50.010;20.020;2022-08-20T09:04:16;27.05;;;16.45;;
28007;SDS011;15333;50.010;20.020;2022-08-20T09:07:20;18.88;;;14.10;;
28007;SDS011;15333;50.010;20.020;2022-08-20T09:10:24;21.13;;;15.00;;
28007;SDS011;15333;50.010;20.020;2022-08-20T09:13:25;20.92;;;14.80;;
28007;SDS011;15333;50.010;20.020;2022-08-20T09:16:25;25.30;;;14.80;;
28007;SDS011;15333;50.010;20.020;2022-08-20T09:19:27;23.45;;;14.57;;
28007;SDS011;15333;50.010;20.020;2022-08-20T09:22:28;21.83;;;14.40;;
28007;SDS011;15333;50.010;20.020;2022-08-20T09:25:30;19.33;;;15.10;;
28007;SDS011;15333;50.010;20.020;2022-08-20T09:28:31;18.20;;;13.38;;
28007;SDS011;15333;50.010;20.020;2022-08-20T09:31:32;18.55;;;14.90;;
28007;SDS011;15333;50.010;20.020;2022-08-20T09:34:34;22.23;;;14.75;;
28007;SDS011;15333;50.010;20.020;2022-08-20T09:37:36;18.00;;;13.57;;
28007;SDS011;15333;50.010;20.020;2022-08-20T09:40:37;19.83;;;14.10;;
28007;SDS011;15333;50.010;20.020;2022-08-20T09:43:38;19.00;;;13.48;;
28007;SDS011;15333;50.010;20.020;2022-08-20T09:46:39;18.38;;;12.80;;
28007;SDS011;15333;50.010;20.020;2022-08-20T09:49:40;16.73;;;13.02;;
28007;SDS011;15333;50.010;20.020;2022-08-20T09:52:42;18.50;;;12.70;;
28007;SDS011;15333;50.010;20.020;2022-08-20T09:55:48;16.88;;;13.40;;
28007;SDS011;15333;50.010;20.020;2022-08-20T09:58:51;15.32;;;13.07;;
28007;SDS011;15333;50.010;20.020;2022-08-20T10:01:53;17.92;;;12.63;;
28007;SDS011;15333;50.010;20.020;2022-08-20T10:04:54;19.73;;;11.40;;
28007;SDS011;15333;50.010;20.020;2022-08-20T10:07:55;15.40;;;12.50;;
28007;SDS011;15333;50.010;20.020;2022-08-20T10:10:56;19.20;;;12.57;;
28007;SDS011;15333;50.010;20.020;2022-08-20T10:13:57;13.52;;;12.13;;
28007;SDS011;15333;50.010;20.020;2022-08-20T10:16:59;16.30;;;12.10;;
28007;SDS011;15333;50.010;20.020;2022-08-20T10:20:01;14.32;;;12.15;;
28007;SDS011;15333;50.010;20.020;2022-08-20T10:23:02;15.07;;;12.50;;
28007;SDS011;15333;50.010;20.020;2022-08-20T10:26:03;15.73;;;11.93;;
28007;SDS011;15333;50.010;20.020;2022-08-20T10:29:06;17.15;;;11.75;;
28007;SDS011;15333;50.010;20.020;2022-08-20T10:32:08;19.45;;;11.75;;
28007;SDS011;15333;50.010;20.020;2022-08-20T10:35:13;16.95;;;11.82;;
28007;SDS011;15333;50.010;20.020;2022-08-20T10:38:13;15.57;;;11.20;;
28007;SDS011;15333;50.010;20.020;2022-08-20T10:41:14;19.92;;;12.00;;
28007;SDS011;15333;50.010;20.020;2022-08-20T10:44:15;15.93;;;11.45;;
28007;SDS011;15333;50.010;20.020;2022-08-20T10:47:20;14.23;;;10.57;;
28007;SDS011;15333;50.010;20.020;2022-08-20T10:50:27;21.10;;;11.85;;
28007;SDS011;15333;50.010;20.020;2022-08-20T10:53:28;12.30;;;10.73;;
28007;SDS011;15333;50.010;20.020;2022-08-20T10:56:29;19.73;;;11.18;;
28007;SDS011;15333;50.010;20.020;2022-08-20T10:59:30;14.85;;;11.60;;
28007;SDS011;15333;50.010;20.020;2022-08-20T11:02:31;18.98;;;11.43;;
28007;SDS011;15333;50.010;20.020;2022-08-20T11:05:31;16.23;;;10.68;;
28007;SDS011;15333;50.010;20.020;2022-08-20T11:08:32;14.90;;;10.60;;
28007;SDS011;15333;50.010;20.020;2022-08-20T11:11:33;16.60;;;11.02;;
28007;SDS011;15333;50.010;20.020;2022-08-20T11:14:34;14.57;;;10.73;;
28007;SDS011;15333;50.010;20.020;2022-08-20T11:17:38;17.45;;;11.40;;
28007;SDS011;15333;50.010;20.020;2022-08-20T11:20:40;14.93;;;11.20;;
28007;SDS011;15333;50.010;20.020;2022-08-20T11:23:41;17.25;;;11.23;;
28007;SDS011;15333;50.010;20.020;2022-08-20T11:26:42;15.88;;;10.73;;
28007;SDS011;15333;50.010;20.020;2022-08-20T11:29:43;16.92;;;11.02;;
28007;SDS011;15333;50.010;20.020;2022-08-20T11:32:44;17.30;;;11.35;;
28007;SDS011;15333;50.010;20.020;2022-08-20T11:35:45;20.27;;;11.85;;
28007;SDS011;15333;50.010;20.020;2022-08-20T11:38:46;11.52;;;9.60;;
28007;SDS011;15333;50.010;20.020;2022-08-20T11:41:47;20.85;;;10.80;;
28007;SDS011;15333;50.010;20.020;2022-08-20T11:44:48;13.80;;;10.90;;
28007;SDS011;15333;50.010;20.020;2022-08-20T11:47:49;13.98;;;11.25;;
28007;SDS011;15333;50.010;20.020;2022-08-20T11:50:50;15.02;;;10.38;;
28007;SDS011;15333;50.010;20.020;2022-08-20T11:53:51;16.58;;;11.82;;
28007;SDS011;15333;50.010;20.020;2022-08-20T11:56:52;17.02;;;11.35;;
28007;SDS011;15333;50.010;20.020;2022-08-20T11:59:53;15.18;;;10.68;;
28007;SDS011;15333;50.010;20.020;2022-08-20T12:02:55;22.20;;;11.93;;
28007;SDS011;15333;50.010;20.020;2022-08-20T12:05:56;16.00;;;11.10;;
28007;SDS011;15333;50.010;20.020;2022-08-20T12:08:58;16.00;;;11.85;;
28007;SDS011;15333;50.010;20.020;2022-08-20T12:11:59;13.68;;;10.23;;
28007;SDS011;15333;50.010;20.020;2022-08-20T12:15:00;21.60;;;11.38;;
28007;SDS011;15333;50.010;20.020;2022-08-20T12:18:04;17.55;;;10.98;;
28007;SDS011;15333;50.010;20.020;2022-08-20T12:21:10;13.50;;;10.73;;
28007;SDS011;15333;50.010;20.020;2022-08-20T12:24:10;17.95;;;11.60;;
28007;SDS011;15333;50.010;20.020;2022-08-20T12:27:12;18.35;;;10.63;;
28007;SDS011;15333;50.010;20.020;2022-08-20T12:30:24;12.50;;;11.20;;
28007;SDS011;15333;50.010;20.020;2022-08-20T12:33:25;19.92;;;10.70;;
28007;SDS011;15333;50.010;20.020;2022-08-20T12:36:26;13.93;;;10.73;;
28007;SDS011;15333;50.010;20.020;2022-08-20T12:39:27;16.35;;;11.32;;
28007;SDS011;15333;50.010;20.020;2022-08-20T12:42:30;13.73;;;10.82;;
28007;SDS011;15333;50.010;20.020;2022-08-20T12:45:32;16.23;;;10.70;;
28007;SDS011;15333;50.010;20.020;2022-08-20T12:48:33;17.25;;;10.65;;
28007;SDS011;15333;50.010;20.020;2022-08-20T12:51:34;16.02;;;11.18;;
28007;SDS011;15333;50.010;20.020;2022-08-20T12:54:35;23.23;;;14.90;;
28007;SDS011;15333;50.010;20.020;2022-08-20T12:57:39;17.17;;;11.82;;
28007;SDS011;15333;50.010;20.020;2022-08-20T13:00:44;23.00;;;12.15;;
28007;SDS011;15333;50.010;20.020;2022-08-20T13:03:47;22.90;;;11.70;;
28007;SDS011;15333;50.010;20.020;2022-08-20T13:06:48;17.40;;;12.15;;
28007;SDS011;15333;50.010;20.020;2022-08-20T13:09:48;14.60;;;11.95;;
28007;SDS011;15333;50.010;20.020;2022-08-20T13:12:49;18.90;;;12.85;;
28007;SDS011;15333;50.010;20.020;2022-08-20T13:15:50;19.88;;;11.90;;
28007;SDS011;15333;50.010;20.020;2022-08-20T13:18:51;22.80;;;12.60;;
28007;SDS011;15333;50.010;20.020;2022-08-20T13:21:52;28.10;;;14.32;;
28007;SDS011;15333;50.010;20.020;2022-08-20T13:24:53;28.85;;;13.00;;
28007;SDS011;15333;50.010;20.020;2022-08-20T13:27:58;29.85;;;13.85;;
28007;SDS011;15333;50.010;20.020;2022-08-20T13:31:00;37.25;;;15.07;;
28007;SDS011;15333;50.010;20.020;2022-08-20T13:34:01;33.95;;;14.43;;
28007;SDS011;15333;50.010;20.020;2022-08-20T13:37:10;30.98;;;9.18;;
28007;SDS011;15333;50.010;20.020;2022-08-20T13:40:15;16.42;;;6.57;;
28007;SDS011;15333;50.010;20.020;2022-08-20T13:43:16;17.52;;;3.78;;
28007;SDS011;15333;50.010;20.020;2022-08-20T13:46:17;11.27;;;3.22;;
28007;SDS011;15333;50.010;20.020;2022-08-20T13:49:18;11.27;;;3.40;;
28007;SDS011;15333;50.010;20.020;2022-08-20T13:52:19;12.90;;;2.88;;
28007;SDS011;15333;50.010;20.020;2022-08-20T13:55:20;6.93;;;2.42;;
28007;SDS011;15333;50.010;20.020;2022-08-20T13:58:23;4.28;;;2.50;;
28007;SDS011;15333;50.010;20.020;2022-08-20T14:01:24;3.45;;;1.80;;
28007;SDS011;15333;50.010;20.020;2022-08-20T14:04:24;7.75;;;2.10;;
28007;SDS011;15333;50.010;20.020;2022-08-20T14:07:26;7.65;;;2.88;;
28007;SDS011;15333;50.010;20.020;2022-08-20T14:10:29;6.68;;;3.15;;
28007;SDS011;15333;50.010;20.020;2022-08-20T14:13:32;8.73;;;3.88;;
28007;SDS011;15333;50.010;20.020;2022-08-20T14:16:33;7.43;;;4.47;;
28007;SDS011;15333;50.010;20.020;2022-08-20T14:19:36;14.30;;;5.13;;
28007;SDS011;15333;50.010;20.020;2022-08-20T14:22:37;6.53;;;4.82;;
28007;SDS011;15333;50.010;20.020;2022-08-20T14:25:38;8.90;;;5.00;;
28007;SDS011;15333;50.010;20.020;2022-08-20T14:28:39;6.20;;;4.70;;
28007;SDS011;15333;50.010;20.020;2022-08-20T14:31:40;8.63;;;5.05;;
28007;SDS011;15333;50.010;20.020;2022-08-20T14:34:41;9.02;;;4.97;;
28007;SDS011;15333;50.010;20.020;2022-08-20T14:37:45;9.15;;;4.93;;
28007;SDS011;15333;50.010;20.020;2022-08-20T14:40:47;11.15;;;5.57;;
28007;SDS011;15333;50.010;20.020;2022-08-20T14:43:49;8.25;;;5.43;;
28007;SDS011;15333;50.010;20.020;2022-08-20T14:46:50;9.48;;;5.28;;
28007;SDS011;15333;50.010;20.020;2022-08-20T14:49:52;9.57;;;5.13;;
28007;SDS011;15333;50.010;20.020;2022-08-20T14:52:54;7.68;;;4.97;;
28007;SDS011;15333;50.010;20.020;2022-08-20T14:55:56;13.98;;;6.25;;
28007;SDS011;15333;50.010;20.020;2022-08-20T14:58:57;9.30;;;5.90;;
28007;SDS011;15333;50.010;20.020;2022-08-20T15:01:57;8.20;;;5.13;;
28007;SDS011;15333;50.010;20.020;2022-08-20T15:04:59;10.77;;;5.75;;
28007;SDS011;15333;50.010;20.020;2022-08-20T15:08:00;12.32;;;5.68;;
28007;SDS011;15333;50.010;20.020;2022-08-20T15:11:02;9.18;;;5.43;;
28007;SDS011;15333;50.010;20.020;2022-08-20T15:14:02;10.32;;;5.82;;
28007;SDS011;15333;50.010;20.020;2022-08-20T15:17:04;9.80;;;5.80;;
28007;SDS011;15333;50.010;20.020;2022-08-20T15:20:05;12.65;;;6.85;;
28007;SDS011;15333;50.010;20.020;2022-08-20T15:23:11;13.35;;;7.97;;
28007;SDS011;15333;50.010;20.020;2022-08-20T15:26:11;8.43;;;5.68;;
28007;SDS011;15333;50.010;20.020;2022-08-20T15:29:13;9.95;;;5.90;;
28007;SDS011;15333;50.010;20.020;2022-08-20T15:32:15;13.18;;;7.60;;
28007;SDS011;15333;50.010;20.020;2022-08-20T15:35:16;11.27;;;6.93;;
28007;SDS011;15333;50.010;20.020;2022-08-20T15:38:17;11.45;;;7.10;;
28007;SDS011;15333;50.010;20.020;2022-08-20T15:41:18;11.52;;;6.50;;
28007;SDS011;15333;50.010;20.020;2022-08-20T15:44:18;10.50;;;7.10;;
28007;SDS011;15333;50.010;20.020;2022-08-20T15:54:00;9.43;;;7.05;;
28007;SDS011;15333;50.010;20.020;2022-08-20T16:00:19;11.60;;;6.28;;
28007;SDS011;15333;50.010;20.020;2022-08-20T16:06:26;41.30;;;29.48;;
28007;SDS011;15333;50.010;20.020;2022-08-20T16:19:49;11.55;;;7.50;;
28007;SDS011;15333;50.010;20.020;2022-08-20T16:22:51;14.88;;;8.75;;
28007;SDS011;15333;50.010;20.020;2022-08-20T16:29:24;12.00;;;9.35;;
28007;SDS011;15333;50.010;20.020;2022-08-20T16:32:46;12.27;;;8.20;;
28007;SDS011;15333;50.010;20.020;2022-08-20T16:38:58;14.73;;;9.45;;
28007;SDS011;15333;50.010;20.020;2022-08-20T16:42:03;17.05;;;9.70;;
28007;SDS011;15333;50.010;20.020;2022-08-20T16:45:10;18.92;;;11.05;;
28007;SDS011;15333;50.010;20.020;2022-08-20T16:48:18;13.05;;;10.18;;
28007;SDS011;15333;50.010;20.020;2022-08-20T16:51:32;20.08;;;11.93;;
28007;SDS011;15333;50.010;20.020;2022-08-20T16:54:38;14.32;;;11.18;;
28007;SDS011;15333;50.010;20.020;2022-08-20T16:57:42;17.08;;;12.18;;
28007;SDS011;15333;50.010;20.020;2022-08-20T17:00:45;17.30;;;11.65;;
28007;SDS011;15333;50.010;20.020;2022-08-20T17:03:48;15.65;;;12.52;;
28007;SDS011;15333;50.010;20.020;2022-08-20T17:06:50;18.30;;;11.90;;
28007;SDS011;15333;50.010;20.020;2022-08-20T17:09:51;18.17;;;12.50;;
28007;SDS011;15333;50.010;20.020;2022-08-20T17:12:56;16.50;;;13.32;;
28007;SDS011;15333;50.010;20.020;2022-08-20T17:16:00;15.93;;;12.82;;
28007;SDS011;15333;50.010;20.020;2022-08-20T17:19:07;17.73;;;13.82;;
28007;SDS011;15333;50.010;20.020;2022-08-20T17:22:17;17.83;;;13.57;;
28007;SDS011;15333;50.010;20.020;2022-08-20T17:25:20;21.50;;;15.75;;
28007;SDS011;15333;50.010;20.020;2022-08-20T17:28:30;19.02;;;15.38;;
28007;SDS011;15333;50.010;20.020;2022-08-20T17:31:32;20.13;;;14.60;;
28007;SDS011;15333;50.010;20.020;2022-08-20T17:34:47;20.10;;;13.13;;
28007;SDS011;15333;50.010;20.020;2022-08-20T17:37:51;17.00;;;12.88;;
28007;SDS011;15333;50.010;20.020;2022-08-20T17:40:57;18.58;;;12.13;;
28007;SDS011;15333;50.010;20.020;2022-08-20T17:47:06;17.25;;;11.68;;
28007;SDS011;15333;50.010;20.020;2022-08-20T17:50:15;17.08;;;12.60;;
28007;SDS011;15333;50.010;20.020;2022-08-20T17:56:31;17.90;;;12.98;;
28007;SDS011;15333;50.010;20.020;2022-08-20T17:59:40;20.67;;;14.15;;
28007;SDS011;15333;50.010;20.020;2022-08-20T18:02:44;21.08;;;13.55;;
28007;SDS011;15333;50.010;20.020;2022-08-20T18:05:47;19.77;;;13.35;;
28007;SDS011;15333;50.010;20.020;2022-08-20T18:12:13;24.25;;;14.75;;
28007;SDS011;15333;50.010;20.020;2022-08-20T18:15:23;20.13;;;15.15;;
28007;SDS011;15333;50.010;20.020;2022-08-20T18:18:30;17.08;;;13.82;;
28007;SDS011;15333;50.010;20.020;2022-08-20T18:21:40;21.83;;;15.10;;
28007;SDS011;15333;50.010;20.020;2022-08-20T18:28:11;24.63;;;15.97;;
28007;SDS011;15333;50.010;20.020;2022-08-20T18:37:29;22.65;;;15.27;;